地図

経路データ

SID SEASON NUMBER BASIN SUBBASIN NAME ISO_TIME NATURE LAT LON WMO_WIND WMO_PRES WMO_AGENCY TRACK_TYPE DIST2LAND LANDFALL IFLAG USA_AGENCY USA_ATCF_ID USA_LAT USA_LON USA_RECORD USA_STATUS USA_WIND USA_PRES USA_SSHS USA_R34_NE USA_R34_SE USA_R34_SW USA_R34_NW USA_R50_NE USA_R50_SE USA_R50_SW USA_R50_NW USA_R64_NE USA_R64_SE USA_R64_SW USA_R64_NW USA_POCI USA_ROCI USA_RMW USA_EYE TOKYO_LAT TOKYO_LON TOKYO_GRADE TOKYO_WIND TOKYO_PRES TOKYO_R50_DIR TOKYO_R50_LONG TOKYO_R50_SHORT TOKYO_R30_DIR TOKYO_R30_LONG TOKYO_R30_SHORT TOKYO_LAND CMA_LAT CMA_LON CMA_CAT CMA_WIND CMA_PRES HKO_LAT HKO_LON HKO_CAT HKO_WIND HKO_PRES NEWDELHI_LAT NEWDELHI_LON NEWDELHI_GRADE NEWDELHI_WIND NEWDELHI_PRES NEWDELHI_CI NEWDELHI_DP NEWDELHI_POCI REUNION_LAT REUNION_LON REUNION_TYPE REUNION_WIND REUNION_PRES REUNION_TNUM REUNION_CI REUNION_RMW REUNION_R34_NE REUNION_R34_SE REUNION_R34_SW REUNION_R34_NW REUNION_R50_NE REUNION_R50_SE REUNION_R50_SW REUNION_R50_NW REUNION_R64_NE REUNION_R64_SE REUNION_R64_SW REUNION_R64_NW BOM_LAT BOM_LON BOM_TYPE BOM_WIND BOM_PRES BOM_TNUM BOM_CI BOM_RMW BOM_R34_NE BOM_R34_SE BOM_R34_SW BOM_R34_NW BOM_R50_NE BOM_R50_SE BOM_R50_SW BOM_R50_NW BOM_R64_NE BOM_R64_SE BOM_R64_SW BOM_R64_NW BOM_ROCI BOM_POCI BOM_EYE BOM_POS_METHOD BOM_PRES_METHOD NADI_LAT NADI_LON NADI_CAT NADI_WIND NADI_PRES WELLINGTON_LAT WELLINGTON_LON WELLINGTON_WIND WELLINGTON_PRES DS824_LAT DS824_LON DS824_STAGE DS824_WIND DS824_PRES TD9636_LAT TD9636_LON TD9636_STAGE TD9636_WIND TD9636_PRES TD9635_LAT TD9635_LON TD9635_WIND TD9635_PRES TD9635_ROCI NEUMANN_LAT NEUMANN_LON NEUMANN_CLASS NEUMANN_WIND NEUMANN_PRES MLC_LAT MLC_LON MLC_CLASS MLC_WIND MLC_PRES USA_GUST BOM_GUST BOM_GUST_PER REUNION_GUST REUNION_GUST_PER USA_SEAHGT USA_SEARAD_NE USA_SEARAD_SE USA_SEARAD_SW USA_SEARAD_NW STORM_SPEED STORM_DIR
1867242N12333 1867 14 NA NA NOT_NAMED 1867-08-29 12:00:00 TS 12.3000 -27.5000 main 1114 1114 _____________O -1 12.3000 -27.5000 TS 35 10 276
1867242N12333 1867 14 NA NA NOT_NAMED 1867-08-29 15:00:00 TS 12.3502 -28.0000 main 1164 1164 _____________P -1 12.3502 -28.0000 TS 35 10 276
1867242N12333 1867 14 NA NA NOT_NAMED 1867-08-29 18:00:00 TS 12.4000 -28.5000 main 1217 1217 _____________O -1 12.4000 -28.5000 TS 35 10 276
1867242N12333 1867 14 NA NA NOT_NAMED 1867-08-29 21:00:00 TS 12.4499 -29.0000 main 1270 1267 _____________P -1 12.4499 -29.0000 TS 35 10 276
1867242N12333 1867 14 NA NA NOT_NAMED 1867-08-30 00:00:00 TS 12.5000 -29.5000 main 1320 1320 _____________O -1 12.5000 -29.5000 TS 35 10 276
1867242N12333 1867 14 NA NA NOT_NAMED 1867-08-30 03:00:00 TS 12.5574 -30.0000 main 1371 1371 _____________P -1 12.5574 -30.0000 TS 35 10 276
1867242N12333 1867 14 NA NA NOT_NAMED 1867-08-30 06:00:00 TS 12.6000 -30.5000 main 1424 1424 _____________O -1 12.6000 -30.5000 TS 35 10 272
1867242N12333 1867 14 NA NA NOT_NAMED 1867-08-30 09:00:00 TS 12.6000 -31.0151 main 1478 1478 _____________P -1 12.6000 -31.0151 TS 40 10 270
1867242N12333 1867 14 NA NA NOT_NAMED 1867-08-30 12:00:00 TS 12.6000 -31.5000 main 1531 1531 _____________O -1 12.6000 -31.5000 TS 45 9 273
1867242N12333 1867 14 NA NA NOT_NAMED 1867-08-30 15:00:00 TS 12.6424 -31.9225 main 1574 1574 _____________P -1 12.6424 -31.9225 TS 45 8 277
1867242N12333 1867 14 NA NA NOT_NAMED 1867-08-30 18:00:00 TS 12.7000 -32.3000 main 1614 1614 _____________O -1 12.7000 -32.3000 TS 45 7 278
1867242N12333 1867 14 NA NA NOT_NAMED 1867-08-30 21:00:00 TS 12.7424 -32.6501 main 1657 1655 _____________P -1 12.7424 -32.6501 TS 45 7 278
1867242N12333 1867 14 NA NA NOT_NAMED 1867-08-31 00:00:00 TS 12.8000 -33.0000 main 1688 1688 _____________O -1 12.8000 -33.0000 TS 45 7 282
1867242N12333 1867 14 NA NA NOT_NAMED 1867-08-31 03:00:00 TS 12.8925 -33.4000 main 1729 1729 _____________P -1 12.8925 -33.4000 TS 45 8 284
1867242N12333 1867 14 NA NA NOT_NAMED 1867-08-31 06:00:00 TS 13.0000 -33.8000 main 1770 1770 _____________O -1 13.0000 -33.8000 TS 45 7 286
1867242N12333 1867 14 NA NA NOT_NAMED 1867-08-31 09:00:00 TS 13.0923 -34.1351 main 1801 1801 _____________P -1 13.0923 -34.1351 TS 50 7 286
1867242N12333 1867 14 NA NA NOT_NAMED 1867-08-31 12:00:00 TS 13.2000 -34.5000 main 1842 1842 _____________O -1 13.2000 -34.5000 TS 55 9 287
1867242N12333 1867 14 NA NA NOT_NAMED 1867-08-31 15:00:00 TS 13.3425 -34.9775 main 1890 1890 _____________P -1 13.3425 -34.9775 TS 55 10 287
1867242N12333 1867 14 NA NA NOT_NAMED 1867-08-31 18:00:00 TS 13.5000 -35.5000 main 1897 1892 _____________O -1 13.5000 -35.5000 TS 55 10 287
1867242N12333 1867 14 NA NA NOT_NAMED 1867-08-31 21:00:00 TS 13.6424 -36.0001 main 1895 1895 _____________P -1 13.6424 -36.0001 TS 57 10 287
1867242N12333 1867 14 NA NA NOT_NAMED 1867-09-01 00:00:00 TS 13.8000 -36.5000 main 1906 1904 _____________O -1 13.8000 -36.5000 TS 60 10 290
1867242N12333 1867 14 NA NA NOT_NAMED 1867-09-01 03:00:00 TS 13.9999 -37.0000 main 1908 1876 _____________P -1 13.9999 -37.0000 TS 62 11 292
1867242N12333 1867 14 NA NA NOT_NAMED 1867-09-01 06:00:00 TS 14.2000 -37.5000 main 1876 1839 _____________O -1 14.2000 -37.5000 HU 65 10 287
1867242N12333 1867 14 NA NA NOT_NAMED 1867-09-01 09:00:00 TS 14.2899 -38.0080 main 1839 1809 _____________P -1 14.2899 -38.0080 HU 65 10 287
1867242N12333 1867 14 NA NA NOT_NAMED 1867-09-01 12:00:00 TS 14.5000 -38.5000 main 1809 1799 _____________O -1 14.5000 -38.5000 HU 65 12 309
1867242N12333 1867 14 NA NA NOT_NAMED 1867-09-01 15:00:00 TS 15.0324 -38.9574 main 1803 1803 _____________P -1 15.0324 -38.9574 HU 65 15 324
1867242N12333 1867 14 NA NA NOT_NAMED 1867-09-01 18:00:00 TS 15.7000 -39.4000 main 1823 1823 _____________O -1 15.7000 -39.4000 HU 65 15 326
1867242N12333 1867 14 NA NA NOT_NAMED 1867-09-01 21:00:00 TS 16.2999 -39.8503 main 1832 1832 _____________P -1 16.2999 -39.8503 HU 65 15 324
1867242N12333 1867 14 NA NA NOT_NAMED 1867-09-02 00:00:00 TS 16.9000 -40.3000 main 1852 1852 _____________O -1 16.9000 -40.3000 HU 65 15 324
1867242N12333 1867 14 NA NA NOT_NAMED 1867-09-02 03:00:00 TS 17.4999 -40.7577 main 1869 1869 _____________P -1 17.4999 -40.7577 HU 65 15 324
1867242N12333 1867 14 NA NA NOT_NAMED 1867-09-02 06:00:00 TS 18.1000 -41.2000 main 1896 1896 _____________O -1 18.1000 -41.2000 HU 65 14 324
1867242N12333 1867 14 NA NA NOT_NAMED 1867-09-02 09:00:00 TS 18.6700 -41.6377 main 1926 1919 _____________P -1 18.6700 -41.6377 HU 65 14 328
1867242N12333 1867 14 NA NA NOT_NAMED 1867-09-02 12:00:00 TS 19.3000 -42.0000 main 1952 1952 _____________O -1 19.3000 -42.0000 HU 65 15 338
1867242N12333 1867 14 NA NA NOT_NAMED 1867-09-02 15:00:00 TS 20.0774 -42.2304 main 2012 2012 _____________P -1 20.0774 -42.2304 HU 65 17 347
1867242N12333 1867 14 NA NA NOT_NAMED 1867-09-02 18:00:00 TS 20.9000 -42.4000 main 2074 2074 _____________O -1 20.9000 -42.4000 HU 65 16 348
1867242N12333 1867 14 NA NA NOT_NAMED 1867-09-02 21:00:00 TS 21.6575 -42.6002 main 2138 2138 _____________P -1 21.6575 -42.6002 HU 65 16 346
1867242N12333 1867 14 NA NA NOT_NAMED 1867-09-03 00:00:00 TS 22.4000 -42.8000 main 2195 2195 _____________O -1 22.4000 -42.8000 HU 65 15 346
1867242N12333 1867 14 NA NA NOT_NAMED 1867-09-03 03:00:00 TS 23.1500 -43.0150 main 2262 2262 _____________P -1 23.1500 -43.0150 HU 65 16 346
1867242N12333 1867 14 NA NA NOT_NAMED 1867-09-03 06:00:00 TS 23.9000 -43.2000 main 2321 2321 _____________O -1 23.9000 -43.2000 HU 65 16 350
1867242N12333 1867 14 NA NA NOT_NAMED 1867-09-03 09:00:00 TS 24.6874 -43.3153 main 2396 2396 _____________P -1 24.6874 -43.3153 HU 65 15 353
1867242N12333 1867 14 NA NA NOT_NAMED 1867-09-03 12:00:00 TS 25.4000 -43.4000 main 2415 2414 _____________O -1 25.4000 -43.4000 HU 65 13 352
1867242N12333 1867 14 NA NA NOT_NAMED 1867-09-03 15:00:00 TS 25.9450 -43.5002 main 2420 2403 _____________P -1 25.9450 -43.5002 HU 65 10 350
1867242N12333 1867 14 NA NA NOT_NAMED 1867-09-03 18:00:00 TS 26.4000 -43.6000 main 2403 2357 _____________O -1 26.4000 -43.6000 HU 65 9 348
1867242N12333 1867 14 NA NA NOT_NAMED 1867-09-03 21:00:00 TS 26.8500 -43.7075 main 2346 2301 _____________P -1 26.8500 -43.7075 HU 65 9 349
1867242N12333 1867 14 NA NA NOT_NAMED 1867-09-04 00:00:00 TS 27.3000 -43.8000 main 2301 2245 _____________O -1 27.3000 -43.8000 HU 65 10 352
1867242N12333 1867 14 NA NA NOT_NAMED 1867-09-04 03:00:00 TS 27.8000 -43.8576 main 2245 2192 _____________P -1 27.8000 -43.8576 HU 65 10 355
1867242N12333 1867 14 NA NA NOT_NAMED 1867-09-04 06:00:00 TS 28.3000 -43.9000 main 2192 2150 _____________O -1 28.3000 -43.9000 HU 65 9 356
1867242N12333 1867 14 NA NA NOT_NAMED 1867-09-04 09:00:00 TS 28.7350 -43.9353 main 2150 2094 _____________P -1 28.7350 -43.9353 HU 65 9 355
1867242N12333 1867 14 NA NA NOT_NAMED 1867-09-04 12:00:00 TS 29.2000 -44.0000 main 2094 2038 _____________O -1 29.2000 -44.0000 HU 65 11 350
1867242N12333 1867 14 NA NA NOT_NAMED 1867-09-04 15:00:00 TS 29.7776 -44.1422 main 2028 1958 _____________P -1 29.7776 -44.1422 HU 65 12 348
1867242N12333 1867 14 NA NA NOT_NAMED 1867-09-04 18:00:00 TS 30.4000 -44.3000 main 1958 1892 _____________O -1 30.4000 -44.3000 HU 65 13 350
1867242N12333 1867 14 NA NA NOT_NAMED 1867-09-04 21:00:00 TS 31.0374 -44.4002 main 1892 1827 _____________P -1 31.0374 -44.4002 HU 65 12 352
1867242N12333 1867 14 NA NA NOT_NAMED 1867-09-05 00:00:00 TS 31.6000 -44.5000 main 1827 1782 _____________O -1 31.6000 -44.5000 HU 65 10 350
1867242N12333 1867 14 NA NA NOT_NAMED 1867-09-05 03:00:00 TS 31.9873 -44.6056 main 1782 1744 _____________P -1 31.9873 -44.6056 HU 62 7 340
1867242N12333 1867 14 NA NA NOT_NAMED 1867-09-05 06:00:00 TS 32.3000 -44.8000 main 1744 1688 _____________O -1 32.3000 -44.8000 TS 60 9 323
1867242N12333 1867 14 NA NA NOT_NAMED 1867-09-05 09:00:00 TS 32.6730 -45.2067 main 1688 1644 _____________P -1 32.6730 -45.2067 TS 60 10 316
1867242N12333 1867 14 NA NA NOT_NAMED 1867-09-05 12:00:00 TS 33.0000 -45.6000 main 1644 1620 _____________O -1 33.0000 -45.6000 TS 60 7 321
1867242N12333 1867 14 NA NA NOT_NAMED 1867-09-05 15:00:00 TS 33.2222 -45.7381 main 1620 1596 _____________P -1 33.2222 -45.7381 TS 57 4 337
1867242N12333 1867 14 NA NA NOT_NAMED 1867-09-05 18:00:00 TS 33.4000 -45.8000 main 1596 1571 _____________O -1 33.4000 -45.8000 TS 55 4 335
1867242N12333 1867 14 NA NA NOT_NAMED 1867-09-05 21:00:00 TS 33.6000 -45.9500 main 1571 1544 _____________P -1 33.6000 -45.9500 TS 55 5 328
1867242N12333 1867 14 NA NA NOT_NAMED 1867-09-06 00:00:00 TS 33.8000 -46.1000 main 1544 1520 _____________O -1 33.8000 -46.1000 TS 55 5 332
1867242N12333 1867 14 NA NA NOT_NAMED 1867-09-06 03:00:00 TS 34.0000 -46.2076 main 1520 1496 _____________P -1 34.0000 -46.2076 TS 55 4 337
1867242N12333 1867 14 NA NA NOT_NAMED 1867-09-06 06:00:00 TS 34.2000 -46.3000 main 1496 1472 _____________O -1 34.2000 -46.3000 TS 55 4 338
1867242N12333 1867 14 NA NA NOT_NAMED 1867-09-06 09:00:00 TS 34.4075 -46.4075 main 1472 1448 _____________P -1 34.4075 -46.4075 TS 55 4 338
1867242N12333 1867 14 NA NA NOT_NAMED 1867-09-06 12:00:00 TS 34.6000 -46.5000 main 1448 1434 _____________O -1 34.6000 -46.5000 TS 55 4 341
1867242N12333 1867 14 NA NA NOT_NAMED 1867-09-06 15:00:00 TS 34.7575 -46.5576 main 1424 1413 _____________P -1 34.7575 -46.5576 TS 55 3 346
1867242N12333 1867 14 NA NA NOT_NAMED 1867-09-06 18:00:00 TS 34.9000 -46.6000 main 1413 1403 _____________O -1 34.9000 -46.6000 TS 55 3 346
1867242N12333 1867 14 NA NA NOT_NAMED 1867-09-06 21:00:00 TS 35.0500 -46.6426 main 1403 1379 _____________P -1 35.0500 -46.6426 TS 55 3 346
1867242N12333 1867 14 NA NA NOT_NAMED 1867-09-07 00:00:00 TS 35.2000 -46.7000 main 1379 1365 _____________O -1 35.2000 -46.7000 TS 55 3 336
1867242N12333 1867 14 NA NA NOT_NAMED 1867-09-07 03:00:00 TS 35.3500 -46.8000 main 1355 1341 _____________P -1 35.3500 -46.8000 TS 52 3 332
1867242N12333 1867 14 NA NA NOT_NAMED 1867-09-07 06:00:00 TS 35.5000 -46.9000 main 1341 1317 _____________O -1 35.5000 -46.9000 TS 50 3 338
1867242N12333 1867 14 NA NA NOT_NAMED 1867-09-07 09:00:00 TS 35.6725 -46.9575 main 1317 1306 _____________P -1 35.6725 -46.9575 TS 50 3 346
1867242N12333 1867 14 NA NA NOT_NAMED 1867-09-07 12:00:00 TS 35.8000 -47.0000 main 1306 1303 _____________O -1 35.8000 -47.0000 TS 50 2 333
1867242N12333 1867 14 NA NA NOT_NAMED 1867-09-07 15:00:00 TS 35.8300 -47.0575 main 1303 1303 _____________P -1 35.8300 -47.0575 TS 50 1 270
1867242N12333 1867 14 NA NA NOT_NAMED 1867-09-07 18:00:00 TS 35.8000 -47.1000 main 1303 1303 _____________O -1 35.8000 -47.1000 TS 50 1 204
1867242N12333 1867 14 NA NA NOT_NAMED 1867-09-07 21:00:00 TS 35.7575 -47.1000 main 1303 1303 _____________P -1 35.7575 -47.1000 TS 50 1 0
1867242N12333 1867 14 NA NA NOT_NAMED 1867-09-08 00:00:00 TS 35.7000 -47.1000 main 1314 1314 _____________O -1 35.7000 -47.1000 TS 50 1 197
1867242N12333 1867 14 NA NA NOT_NAMED 1867-09-08 03:00:00 TS 35.6575 -47.1500 main 1310 1310 _____________P -1 35.6575 -47.1500 TS 50 1 217
1867242N12333 1867 14 NA NA NOT_NAMED 1867-09-08 06:00:00 TS 35.6000 -47.2000 main 1321 1321 _____________O -1 35.6000 -47.2000 TS 50 2 191
1867242N12333 1867 14 NA NA NOT_NAMED 1867-09-08 09:00:00 TS 35.4925 -47.2075 main 1331 1331 _____________P -1 35.4925 -47.2075 TS 50 2 172
1867242N12333 1867 14 NA NA NOT_NAMED 1867-09-08 12:00:00 TS 35.4000 -47.2000 main 1342 1342 _____________O -1 35.4000 -47.2000 TS 50 1 0
1867242N12333 1867 14 NA NA NOT_NAMED 1867-09-08 15:00:00 TS 35.3925 -47.1925 main 1342 1342 _____________P -1 35.3925 -47.1925 TS 50 0 0
1867242N12333 1867 14 NA NA NOT_NAMED 1867-09-08 18:00:00 TS 35.4000 -47.2000 main 1342 1342 _____________O -1 35.4000 -47.2000 TS 50 1 223
1867242N12333 1867 14 NA NA NOT_NAMED 1867-09-08 21:00:00 TS 35.3425 -47.2425 main 1352 1349 _____________P -1 35.3425 -47.2425 TS 50 1 217
1867242N12333 1867 14 NA NA NOT_NAMED 1867-09-09 00:00:00 TS 35.3000 -47.3000 main 1349 1349 _____________O -1 35.3000 -47.3000 TS 50 1 265
1867242N12333 1867 14 NA NA NOT_NAMED 1867-09-09 03:00:00 TS 35.3350 -47.3500 main 1349 1336 _____________P -1 35.3350 -47.3500 TS 50 1 323
1867242N12333 1867 14 NA NA NOT_NAMED 1867-09-09 06:00:00 TS 35.4000 -47.4000 main 1336 1333 _____________O -1 35.4000 -47.4000 TS 50 1 324
1867242N12333 1867 14 NA NA NOT_NAMED 1867-09-09 09:00:00 TS 35.4500 -47.4575 main 1322 1322 _____________P -1 35.4500 -47.4575 TS 50 1 323
1867242N12333 1867 14 NA NA NOT_NAMED 1867-09-09 12:00:00 TS 35.5000 -47.5000 main 1322 1322 _____________O -1 35.5000 -47.5000 TS 50 1 343
1867242N12333 1867 14 NA NA NOT_NAMED 1867-09-09 15:00:00 TS 35.5500 -47.5075 main 1312 1312 _____________P -1 35.5500 -47.5075 TS 50 1 0
1867242N12333 1867 14 NA NA NOT_NAMED 1867-09-09 18:00:00 TS 35.6000 -47.5000 main 1312 1312 _____________O -1 35.6000 -47.5000 TS 50 1 0
1867242N12333 1867 14 NA NA NOT_NAMED 1867-09-09 21:00:00 TS 35.6500 -47.5000 main 1301 1301 _____________P -1 35.6500 -47.5000 TS 50 1 0
1867242N12333 1867 14 NA NA NOT_NAMED 1867-09-10 00:00:00 TS 35.7000 -47.5000 main 1301 1301 _____________O -1 35.7000 -47.5000 TS 50 1 0
1867242N12333 1867 14 NA NA NOT_NAMED 1867-09-10 03:00:00 TS 35.7500 -47.5000 main 1291 1291 _____________P -1 35.7500 -47.5000 TS 52 1 0
1867242N12333 1867 14 NA NA NOT_NAMED 1867-09-10 06:00:00 TS 35.8000 -47.5000 main 1291 1280 _____________O -1 35.8000 -47.5000 TS 55 1 0
1867242N12333 1867 14 NA NA NOT_NAMED 1867-09-10 09:00:00 TS 35.8575 -47.5000 main 1280 1280 _____________P -1 35.8575 -47.5000 TS 55 1 0
1867242N12333 1867 14 NA NA NOT_NAMED 1867-09-10 12:00:00 TS 35.9000 -47.5000 main 1280 1280 _____________O -1 35.9000 -47.5000 TS 55 0 0
1867242N12333 1867 14 NA NA NOT_NAMED 1867-09-10 15:00:00 TS 35.9000 -47.5000 main 1280 1280 _____________P -1 35.9000 -47.5000 TS 55 0 0
1867242N12333 1867 14 NA NA NOT_NAMED 1867-09-10 18:00:00 TS 35.9000 -47.5000 main 1280 1280 _____________O -1 35.9000 -47.5000 TS 55 1 333
1867242N12333 1867 14 NA NA NOT_NAMED 1867-09-10 21:00:00 TS 35.9500 -47.5075 main 1270 1270 _____________P -1 35.9500 -47.5075 TS 55 1 0
1867242N12333 1867 14 NA NA NOT_NAMED 1867-09-11 00:00:00 TS 36.0000 -47.5000 main 1270 1270 _____________O -1 36.0000 -47.5000 TS 55 1 43
1867242N12333 1867 14 NA NA NOT_NAMED 1867-09-11 03:00:00 TS 36.0000 -47.4575 main 1270 1270 _____________P -1 36.0000 -47.4575 TS 55 1 90
1867242N12333 1867 14 NA NA NOT_NAMED 1867-09-11 06:00:00 TS 36.0000 -47.4000 main 1273 1273 _____________O -1 36.0000 -47.4000 TS 55 1 69
1867242N12333 1867 14 NA NA NOT_NAMED 1867-09-11 09:00:00 TS 36.0350 -47.3500 main 1276 1266 _____________P -1 36.0350 -47.3500 TS 55 1 37
1867242N12333 1867 14 NA NA NOT_NAMED 1867-09-11 12:00:00 TS 36.1000 -47.3000 main 1266 1255 _____________O -1 36.1000 -47.3000 TS 55 2 29
1867242N12333 1867 14 NA NA NOT_NAMED 1867-09-11 15:00:00 TS 36.1775 -47.2500 main 1258 1248 _____________P -1 36.1775 -47.2500 TS 57 2 23
1867242N12333 1867 14 NA NA NOT_NAMED 1867-09-11 18:00:00 TS 36.3000 -47.2000 main 1248 1227 _____________O -1 36.3000 -47.2000 TS 60 992 3 12
1867242N12333 1867 14 NA NA NOT_NAMED 1867-09-11 21:00:00 TS 36.4850 -47.1649 main 1227 1210 _____________P -1 36.4850 -47.1649 TS 60 4 11
1867242N12333 1867 14 NA NA NOT_NAMED 1867-09-12 00:00:00 TS 36.7000 -47.1000 main 1210 1193 _____________O -1 36.7000 -47.1000 TS 60 4 21
1867242N12333 1867 14 NA NA NOT_NAMED 1867-09-12 03:00:00 TS 36.9000 -46.9650 main 1193 1180 _____________P -1 36.9000 -46.9650 TS 60 5 31
1867242N12333 1867 14 NA NA NOT_NAMED 1867-09-12 06:00:00 TS 37.1000 -46.8000 main 1180 1170 _____________O -1 37.1000 -46.8000 TS 60 4 33
1867242N12333 1867 14 NA NA NOT_NAMED 1867-09-12 09:00:00 TS 37.2398 -46.6863 main 1174 1151 _____________P -1 37.2398 -46.6863 TS 57 5 31
1867242N12333 1867 14 NA NA NOT_NAMED 1867-09-12 12:00:00 TS 37.5000 -46.5000 main 1151 1114 _____________O -1 37.5000 -46.5000 TS 55 9 28
1867242N12333 1867 14 NA NA NOT_NAMED 1867-09-12 15:00:00 TS 38.0476 -46.1457 main 1118 1069 _____________P -1 38.0476 -46.1457 TS 55 14 28
1867242N12333 1867 14 NA NA NOT_NAMED 1867-09-12 18:00:00 TS 38.7000 -45.7000 main 1069 1042 _____________O -1 38.7000 -45.7000 TS 55 14 30
1867242N12333 1867 14 NA NA NOT_NAMED 1867-09-12 21:00:00 TS 39.2499 -45.2567 main 1042 1014 _____________P -1 39.2499 -45.2567 TS 52 13 32
1867242N12333 1867 14 NA NA NOT_NAMED 1867-09-13 00:00:00 TS 39.8000 -44.8000 main 1014 986 _____________O -1 39.8000 -44.8000 TS 50 13 31
1867242N12333 1867 14 NA NA NOT_NAMED 1867-09-13 03:00:00 TS 40.3998 -44.3495 main 992 968 _____________P -1 40.3998 -44.3495 TS 47 14 30
1867242N12333 1867 14 NA NA NOT_NAMED 1867-09-13 06:00:00 TS 41.0000 -43.9000 main 968 956 _____________O -1 41.0000 -43.9000 TS 45 13 30
1867242N12333 1867 14 NA NA NOT_NAMED 1867-09-13 09:00:00 TS 41.5628 -43.4513 main 949 946 _____________P -1 41.5628 -43.4513 TS 42 13 31
1867242N12333 1867 14 NA NA NOT_NAMED 1867-09-13 12:00:00 TS 42.1000 -43.0000 main 946 _____________O -1 42.1000 -43.0000 TS 40 13 32

IBTrACS Databaseについて

本データベースは、米国NOAAが公開する1842年以降の世界の熱帯低気圧のベストトラックデータアーカイブInternational Best Track Archive for Climate Stewardship (IBTrACS)を、ウェブで閲覧しやすい形式に変換したものです。

最終更新日:2021-10-08